createdAt,value
2022-12-04T00:00:35.701Z,1.02
2022-12-04T00:03:03.458Z,0.98
2022-12-04T00:05:31.104Z,0.94
2022-12-04T00:08:00.207Z,0.97
2022-12-04T00:10:27.979Z,0.99
2022-12-04T00:12:55.623Z,0.92
2022-12-04T00:15:25.971Z,0.98
2022-12-04T00:17:54.537Z,0.91
2022-12-04T00:20:22.917Z,0.92
2022-12-04T00:22:50.643Z,0.95
2022-12-04T00:25:19.864Z,0.98
2022-12-04T00:27:47.500Z,0.99
2022-12-04T00:30:15.539Z,0.93
2022-12-04T00:32:43.159Z,0.91
2022-12-04T00:35:10.875Z,0.89
2022-12-04T00:37:38.792Z,0.89
2022-12-04T00:40:07.993Z,0.88
2022-12-04T00:42:36.980Z,0.82
2022-12-04T00:45:04.975Z,0.87
2022-12-04T00:47:32.568Z,0.92
2022-12-04T00:50:00.208Z,0.90
2022-12-04T00:52:28.341Z,0.87
2022-12-04T00:54:56.186Z,0.89
2022-12-04T00:57:23.741Z,0.91
2022-12-04T00:59:52.762Z,0.96
2022-12-04T01:02:20.547Z,0.93
2022-12-04T01:04:48.218Z,0.85
2022-12-04T01:07:15.815Z,0.81
2022-12-04T01:09:43.402Z,0.85
2022-12-04T01:12:13.873Z,0.79
2022-12-04T01:14:43.818Z,0.82
2022-12-04T01:17:12.818Z,0.78
2022-12-04T01:19:40.706Z,0.79
2022-12-04T01:22:08.381Z,0.72
2022-12-04T01:24:36.115Z,0.76
2022-12-04T01:27:03.906Z,0.77
2022-12-04T01:29:31.511Z,0.75
2022-12-04T01:31:59.293Z,0.76
2022-12-04T01:34:28.471Z,0.78
2022-12-04T01:36:56.115Z,0.70
2022-12-04T01:39:23.791Z,0.72
2022-12-04T01:41:51.407Z,0.74
2022-12-04T01:44:22.365Z,0.76
2022-12-04T01:46:53.271Z,0.74
2022-12-04T01:49:24.822Z,0.75
2022-12-04T01:51:58.394Z,0.80
2022-12-04T01:54:29.573Z,0.77
2022-12-04T01:57:03.402Z,0.76
2022-12-04T01:59:36.522Z,0.71
2022-12-04T02:02:08.226Z,0.75
2022-12-04T02:04:36.554Z,0.74
2022-12-04T02:07:06.135Z,0.79
2022-12-04T02:09:34.728Z,0.78
2022-12-04T02:12:09.241Z,0.85
2022-12-04T02:14:45.588Z,0.92
2022-12-04T02:17:20.888Z,0.90
2022-12-04T02:20:16.753Z,0.87
2022-12-04T02:23:08.050Z,0.90
2022-12-04T02:25:45.138Z,0.91
2022-12-04T02:28:22.894Z,0.91
2022-12-04T02:30:53.802Z,0.91
2022-12-04T02:33:25.222Z,0.96
2022-12-04T02:35:59.772Z,0.98
2022-12-04T02:38:33.689Z,1.04
2022-12-04T02:41:09.999Z,1.02
2022-12-04T02:43:44.862Z,1.03
2022-12-04T02:46:18.318Z,0.97
2022-12-04T02:48:49.450Z,1.03
2022-12-04T02:51:20.971Z,1.10
2022-12-04T02:53:53.355Z,1.12
2022-12-04T02:56:25.369Z,1.11
2022-12-04T02:58:57.471Z,1.13
2022-12-04T03:01:31.383Z,1.09
2022-12-04T03:04:01.891Z,1.13
2022-12-04T03:06:34.867Z,1.16
2022-12-04T03:09:07.444Z,1.19
2022-12-04T03:11:39.481Z,1.20
2022-12-04T03:14:15.180Z,1.24
2022-12-04T03:16:44.037Z,1.24
2022-12-04T03:19:15.219Z,1.25
2022-12-04T03:21:47.231Z,1.29
2022-12-04T03:24:20.999Z,1.27
2022-12-04T03:26:52.600Z,1.29
2022-12-04T03:29:25.458Z,1.29
2022-12-04T03:31:59.015Z,1.27
2022-12-04T03:34:33.799Z,1.26
2022-12-04T03:37:07.341Z,1.26
2022-12-04T03:39:38.939Z,1.27
2022-12-04T03:42:14.712Z,1.29
2022-12-04T03:44:47.846Z,1.31
2022-12-04T03:47:18.718Z,1.35
2022-12-04T03:49:53.831Z,1.37
2022-12-04T03:52:26.612Z,1.39
2022-12-04T03:55:01.092Z,1.43
2022-12-04T03:57:33.499Z,1.44
2022-12-04T04:00:06.836Z,1.48
2022-12-04T04:02:40.959Z,1.53
2022-12-04T04:05:12.172Z,1.56
2022-12-04T04:07:45.111Z,1.55
2022-12-04T04:10:16.850Z,1.57
2022-12-04T04:13:10.495Z,1.61
2022-12-04T04:16:03.173Z,1.64
2022-12-04T04:18:50.861Z,1.62
2022-12-04T04:21:51.276Z,1.62
2022-12-04T04:24:28.899Z,1.62
2022-12-04T04:26:59.580Z,1.63
2022-12-04T04:29:27.557Z,1.62
2022-12-04T04:32:04.530Z,1.58
2022-12-04T04:34:45.163Z,1.60
2022-12-04T04:37:22.727Z,1.63
2022-12-04T04:39:59.180Z,1.66
2022-12-04T04:42:30.859Z,1.69
2022-12-04T04:45:05.663Z,1.68
2022-12-04T04:47:42.543Z,1.68
2022-12-04T04:50:12.952Z,1.72
2022-12-04T04:52:44.074Z,1.73
2022-12-04T04:55:12.216Z,1.76
2022-12-04T04:57:39.864Z,1.77
2022-12-04T05:00:09.869Z,1.79
2022-12-04T05:02:39.153Z,1.83
2022-12-04T05:05:07.794Z,1.83
2022-12-04T05:07:35.535Z,1.84
2022-12-04T05:10:03.199Z,1.86
2022-12-04T05:12:30.803Z,1.86
2022-12-04T05:14:58.483Z,1.87
2022-12-04T05:17:26.390Z,1.88
2022-12-04T05:19:55.014Z,1.89
2022-12-04T05:22:25.634Z,1.88
2022-12-04T05:24:53.759Z,1.90
2022-12-04T05:27:21.867Z,1.91
2022-12-04T05:29:49.780Z,1.92
2022-12-04T05:32:17.384Z,1.91
2022-12-04T05:34:44.978Z,1.90
2022-12-04T05:37:13.923Z,1.88
2022-12-04T05:39:41.511Z,1.91
2022-12-04T05:42:09.235Z,1.90
2022-12-04T05:44:36.879Z,1.91
2022-12-04T05:47:04.900Z,1.94
2022-12-04T05:49:33.636Z,1.94
2022-12-04T05:52:01.551Z,1.98
2022-12-04T05:54:30.558Z,2.02
2022-12-04T05:56:58.310Z,2.05
2022-12-04T05:59:25.935Z,2.11
2022-12-04T06:01:53.955Z,2.16
2022-12-04T06:04:21.645Z,2.19
2022-12-04T06:06:49.704Z,2.22
2022-12-04T06:09:17.374Z,2.26
2022-12-04T06:11:46.361Z,2.31
2022-12-04T06:14:16.007Z,2.36
2022-12-04T06:16:45.326Z,2.41
2022-12-04T06:19:15.970Z,2.43
2022-12-04T06:21:45.962Z,2.42
2022-12-04T06:24:15.848Z,2.45
2022-12-04T06:27:04.100Z,2.51
2022-12-04T06:29:32.818Z,2.54
2022-12-04T06:32:00.551Z,2.58
2022-12-04T06:34:28.520Z,2.58
2022-12-04T06:36:56.223Z,2.60
2022-12-04T06:39:23.973Z,2.63
2022-12-04T06:41:51.592Z,2.68
2022-12-04T06:44:19.190Z,2.70
2022-12-04T06:46:50.337Z,2.75
2022-12-04T06:49:19.481Z,2.77
2022-12-04T06:51:47.067Z,2.75
2022-12-04T06:54:14.656Z,2.80
2022-12-04T06:56:42.323Z,2.79
2022-12-04T06:59:11.199Z,2.81
2022-12-04T07:01:38.853Z,2.86
2022-12-04T07:04:07.927Z,2.87
2022-12-04T07:06:37.618Z,2.91
2022-12-04T07:09:07.639Z,2.93
2022-12-04T07:11:35.380Z,2.96
2022-12-04T07:14:03.584Z,2.97
2022-12-04T07:16:36.675Z,3.02
2022-12-04T07:19:09.327Z,3.02
2022-12-04T07:21:36.952Z,2.99
2022-12-04T07:24:05.052Z,3.01
2022-12-04T07:26:32.740Z,3.03
2022-12-04T07:29:01.001Z,3.02
2022-12-04T07:31:30.326Z,3.06
2022-12-04T07:33:58.872Z,3.08
2022-12-04T07:36:28.584Z,3.08
2022-12-04T07:38:56.518Z,3.05
2022-12-04T07:41:24.460Z,3.09
2022-12-04T07:43:52.248Z,3.10
2022-12-04T07:46:22.633Z,3.09
2022-12-04T07:48:50.387Z,3.11
2022-12-04T07:51:20.026Z,3.15
2022-12-04T07:53:49.619Z,3.16
2022-12-04T07:56:17.764Z,3.17
2022-12-04T07:58:45.942Z,3.20
2022-12-04T08:01:14.928Z,3.21
2022-12-04T08:03:47.996Z,3.25
2022-12-04T08:06:17.508Z,3.26
2022-12-04T08:08:45.463Z,3.27
2022-12-04T08:11:16.619Z,3.30
2022-12-04T08:13:44.547Z,3.27
2022-12-04T08:16:12.862Z,3.30
2022-12-04T08:18:41.536Z,3.32
2022-12-04T08:21:10.856Z,3.29
2022-12-04T08:23:39.365Z,3.30
2022-12-04T08:26:07.908Z,3.31
2022-12-04T08:28:37.082Z,3.33
2022-12-04T08:31:05.352Z,3.36
2022-12-04T08:33:33.079Z,3.38
2022-12-04T08:36:01.586Z,3.40
2022-12-04T08:38:29.328Z,3.41
2022-12-04T08:41:00.744Z,3.39
2022-12-04T08:43:29.027Z,3.37
2022-12-04T08:45:59.761Z,3.38
2022-12-04T08:48:28.209Z,3.41
2022-12-04T08:50:56.234Z,3.43
2022-12-04T08:53:24.648Z,3.44
2022-12-04T08:55:52.790Z,3.45
2022-12-04T08:58:20.843Z,3.46
2022-12-04T09:00:48.490Z,3.49
2022-12-04T09:03:19.038Z,3.51
2022-12-04T09:05:47.403Z,3.53
2022-12-04T09:08:16.385Z,3.54
2022-12-04T09:10:44.418Z,3.56
2022-12-04T09:13:12.433Z,3.58
2022-12-04T09:15:40.727Z,3.60
2022-12-04T09:18:09.379Z,3.59
2022-12-04T09:20:38.679Z,3.60
2022-12-04T09:23:06.857Z,3.62
2022-12-04T09:25:36.821Z,3.63
2022-12-04T09:28:04.711Z,3.64
2022-12-04T09:30:32.651Z,3.63
2022-12-04T09:33:00.319Z,3.63
2022-12-04T09:35:28.015Z,3.65
2022-12-04T09:37:59.111Z,3.61
2022-12-04T09:40:36.859Z,3.63
2022-12-04T09:43:14.505Z,3.67
2022-12-04T09:45:47.443Z,3.69
2022-12-04T09:48:19.275Z,3.73
2022-12-04T09:50:48.958Z,3.75
2022-12-04T09:53:21.111Z,3.75
2022-12-04T09:55:55.695Z,3.81
2022-12-04T09:58:29.662Z,3.83
2022-12-04T10:00:59.088Z,3.85
2022-12-04T10:03:29.375Z,3.82
2022-12-04T10:06:11.115Z,3.84
2022-12-04T10:08:42.679Z,3.90
2022-12-04T10:11:17.889Z,3.91
2022-12-04T10:14:06.314Z,3.95
2022-12-04T10:16:46.206Z,4.01
2022-12-04T10:19:19.996Z,4.06
2022-12-04T10:21:59.770Z,4.15
2022-12-04T10:24:40.899Z,4.23
2022-12-04T10:27:15.747Z,4.32
2022-12-04T10:29:45.058Z,4.34
2022-12-04T10:32:21.641Z,4.43
2022-12-04T10:34:52.047Z,4.49
2022-12-04T10:37:19.682Z,4.55
2022-12-04T10:39:53.738Z,4.63
2022-12-04T10:42:28.852Z,4.72
2022-12-04T10:44:56.757Z,4.73
2022-12-04T10:47:25.824Z,4.74
2022-12-04T10:50:00.304Z,4.73
2022-12-04T10:52:27.994Z,4.76
2022-12-04T10:54:59.798Z,4.79
2022-12-04T10:57:37.506Z,4.84
2022-12-04T11:00:25.011Z,4.87
2022-12-04T11:02:54.399Z,4.97
2022-12-04T11:05:28.091Z,4.98
2022-12-04T11:07:57.048Z,4.91
2022-12-04T11:10:32.907Z,4.91
2022-12-04T11:13:02.675Z,5.01
2022-12-04T11:15:30.813Z,5.08
2022-12-04T11:18:08.983Z,5.03
2022-12-04T11:20:37.052Z,5.08
2022-12-04T11:23:06.123Z,5.05
2022-12-04T11:25:45.444Z,5.08
2022-12-04T11:28:33.895Z,5.14
2022-12-04T11:31:07.456Z,5.15
2022-12-04T11:33:39.809Z,5.19
2022-12-04T11:36:20.618Z,5.24
2022-12-04T11:38:48.862Z,5.25
2022-12-04T11:41:27.748Z,5.24
2022-12-04T11:43:59.897Z,5.13
2022-12-04T11:46:30.619Z,5.16
2022-12-04T11:48:59.225Z,5.17
2022-12-04T11:51:38.484Z,5.15
2022-12-04T11:54:15.791Z,5.20
2022-12-04T11:56:48.168Z,5.18
2022-12-04T11:59:45.057Z,5.10
2022-12-04T12:02:32.015Z,4.99
2022-12-04T12:05:19.380Z,4.98
2022-12-04T12:08:02.556Z,5.01
2022-12-04T12:10:44.863Z,4.91
2022-12-04T12:13:25.623Z,4.95
2022-12-04T12:16:01.391Z,4.87
2022-12-04T12:18:44.731Z,4.83
2022-12-04T12:21:21.695Z,4.77
2022-12-04T12:24:03.243Z,4.73
2022-12-04T12:26:40.099Z,4.60
2022-12-04T12:29:22.067Z,4.58
2022-12-04T12:32:03.984Z,4.56
2022-12-04T12:34:37.536Z,4.61
2022-12-04T12:37:13.456Z,4.55
2022-12-04T12:39:44.300Z,4.59
2022-12-04T12:42:18.550Z,4.57
2022-12-04T12:44:54.484Z,4.55
2022-12-04T12:47:26.870Z,4.54
2022-12-04T12:50:01.489Z,4.53
2022-12-04T12:52:35.447Z,4.49
2022-12-04T12:55:14.944Z,4.49
2022-12-04T12:57:46.269Z,4.45
2022-12-04T13:00:20.018Z,4.46
2022-12-04T13:02:53.777Z,4.46
2022-12-04T13:05:26.642Z,4.42
2022-12-04T13:08:02.148Z,4.43
2022-12-04T13:10:33.865Z,4.43
2022-12-04T13:13:05.231Z,4.43
2022-12-04T13:15:40.422Z,4.41
2022-12-04T13:18:11.875Z,4.38
2022-12-04T13:20:47.217Z,4.39
2022-12-04T13:23:30.124Z,4.41
2022-12-04T13:26:06.085Z,4.45
2022-12-04T13:28:49.082Z,4.44
2022-12-04T13:31:28.302Z,4.43
2022-12-04T13:34:25.274Z,4.44
2022-12-04T13:37:06.411Z,4.41
2022-12-04T13:40:30.651Z,4.45
2022-12-04T13:43:15.643Z,4.45
2022-12-04T13:45:46.685Z,4.44
2022-12-04T13:48:26.770Z,4.42
2022-12-04T13:51:03.997Z,4.46
2022-12-04T13:53:33.548Z,4.46
2022-12-04T13:56:06.188Z,4.43
2022-12-04T13:58:37.540Z,4.45
2022-12-04T14:01:13.103Z,4.44
2022-12-04T14:03:49.427Z,4.43
2022-12-04T14:06:25.055Z,4.42
2022-12-04T14:08:57.728Z,4.44
2022-12-04T14:11:26.191Z,4.43
2022-12-04T14:13:56.517Z,4.42
2022-12-04T14:16:26.692Z,4.42
2022-12-04T14:18:58.603Z,4.43
2022-12-04T14:21:27.474Z,4.41
2022-12-04T14:23:55.194Z,4.45
2022-12-04T14:26:48.813Z,4.45
2022-12-04T14:29:35.259Z,4.44
2022-12-04T14:32:10.578Z,4.41
2022-12-04T14:34:39.715Z,4.40
2022-12-04T14:37:08.010Z,4.39
2022-12-04T14:39:40.903Z,4.40
2022-12-04T14:42:15.263Z,4.40
2022-12-04T14:44:45.982Z,4.38
2022-12-04T14:47:24.376Z,4.37
2022-12-04T14:50:05.747Z,4.39
2022-12-04T14:52:42.568Z,4.36
2022-12-04T14:55:21.621Z,4.37
2022-12-04T14:57:55.155Z,4.40
2022-12-04T15:00:24.795Z,4.39
2022-12-04T15:02:55.910Z,4.40
2022-12-04T15:05:27.373Z,4.39
2022-12-04T15:08:00.191Z,4.39
2022-12-04T15:10:47.595Z,4.40
2022-12-04T15:13:26.566Z,4.42
2022-12-04T15:15:54.671Z,4.42
2022-12-04T15:18:22.343Z,4.41
2022-12-04T15:20:58.154Z,4.41
2022-12-04T15:23:30.290Z,4.42
2022-12-04T15:26:00.612Z,4.45
2022-12-04T15:28:32.265Z,4.45
2022-12-04T15:31:03.637Z,4.42
2022-12-04T15:33:35.875Z,4.46
2022-12-04T15:36:09.778Z,4.48
2022-12-04T15:38:37.830Z,4.48
2022-12-04T15:41:05.508Z,4.48
2022-12-04T15:43:40.399Z,4.50
2022-12-04T15:46:14.162Z,4.48
2022-12-04T15:48:47.568Z,4.48
2022-12-04T15:51:21.326Z,4.50
2022-12-04T15:53:49.243Z,4.51
2022-12-04T15:56:19.639Z,4.50
2022-12-04T15:58:55.998Z,4.50
2022-12-04T16:01:23.801Z,4.47
2022-12-04T16:03:53.182Z,4.48
2022-12-04T16:06:25.015Z,4.51
2022-12-04T16:08:54.478Z,4.47
2022-12-04T16:11:30.713Z,4.51
2022-12-04T16:14:14.968Z,4.50
2022-12-04T16:16:45.019Z,4.50
2022-12-04T16:19:17.845Z,4.51
2022-12-04T16:21:47.417Z,4.54
2022-12-04T16:24:15.290Z,4.51
2022-12-04T16:26:43.069Z,4.54
2022-12-04T16:29:10.682Z,4.55
2022-12-04T16:31:39.096Z,4.57
2022-12-04T16:34:06.823Z,4.54
2022-12-04T16:36:34.495Z,4.56
2022-12-04T16:39:03.527Z,4.58
2022-12-04T16:41:31.225Z,4.58
2022-12-04T16:44:00.575Z,4.60
2022-12-04T16:46:30.238Z,4.58
2022-12-04T16:49:01.515Z,4.59
2022-12-04T16:51:32.116Z,4.54
2022-12-04T16:53:59.732Z,4.58
2022-12-04T16:56:28.691Z,4.53
2022-12-04T16:58:56.327Z,4.54
2022-12-04T17:01:26.476Z,4.58
2022-12-04T17:03:54.266Z,4.58
2022-12-04T17:06:22.095Z,4.60
2022-12-04T17:08:49.735Z,4.59
2022-12-04T17:11:18.478Z,4.58
2022-12-04T17:13:47.556Z,4.56
2022-12-04T17:16:17.609Z,4.61
2022-12-04T17:18:47.356Z,4.61
2022-12-04T17:21:15.606Z,4.57
2022-12-04T17:23:43.795Z,4.59
2022-12-04T17:26:13.621Z,4.60
2022-12-04T17:28:41.632Z,4.58
2022-12-04T17:31:18.052Z,4.61
2022-12-04T17:33:46.227Z,4.62
2022-12-04T17:36:17.038Z,4.63
2022-12-04T17:38:45.278Z,4.59
2022-12-04T17:41:15.086Z,4.60
2022-12-04T17:43:44.052Z,4.59
2022-12-04T17:46:14.074Z,4.61
2022-12-04T17:48:43.323Z,4.60
2022-12-04T17:51:12.823Z,4.59
2022-12-04T17:53:41.016Z,4.61
2022-12-04T17:56:10.794Z,4.60
2022-12-04T17:58:38.662Z,4.58
2022-12-04T18:01:08.528Z,4.59
2022-12-04T18:03:37.531Z,4.62
2022-12-04T18:06:14.131Z,4.61
2022-12-04T18:08:45.303Z,4.63
2022-12-04T18:11:18.735Z,4.61
2022-12-04T18:13:46.378Z,4.63
2022-12-04T18:16:14.078Z,4.65
2022-12-04T18:18:41.804Z,4.62
2022-12-04T18:21:12.189Z,4.60
2022-12-04T18:23:45.108Z,4.60
2022-12-04T18:26:14.486Z,4.61
2022-12-04T18:28:42.328Z,4.59
2022-12-04T18:31:10.895Z,4.57
2022-12-04T18:33:40.666Z,4.58
2022-12-04T18:36:09.420Z,4.55
2022-12-04T18:38:37.367Z,4.55
2022-12-04T18:41:08.444Z,4.57
2022-12-04T18:43:36.520Z,4.56
2022-12-04T18:46:07.815Z,4.58
2022-12-04T18:48:35.916Z,4.59
2022-12-04T18:51:03.725Z,4.58
2022-12-04T18:53:31.300Z,4.58
2022-12-04T18:56:03.310Z,4.59
2022-12-04T18:58:32.250Z,4.59
2022-12-04T19:01:06.222Z,4.61
2022-12-04T19:03:34.411Z,4.61
2022-12-04T19:06:02.665Z,4.64
2022-12-04T19:08:33.712Z,4.63
2022-12-04T19:11:07.708Z,4.59
2022-12-04T19:13:36.939Z,4.62
2022-12-04T19:16:05.306Z,4.64
2022-12-04T19:18:32.970Z,4.63
2022-12-04T19:21:00.564Z,4.64
2022-12-04T19:23:28.167Z,4.60
2022-12-04T19:25:58.073Z,4.60
2022-12-04T19:28:27.576Z,4.62
2022-12-04T19:30:56.683Z,4.62
2022-12-04T19:33:25.938Z,4.63
2022-12-04T19:36:02.215Z,4.65
2022-12-04T19:38:31.369Z,4.66
2022-12-04T19:41:08.131Z,4.62
2022-12-04T19:43:35.828Z,4.60
2022-12-04T19:46:05.489Z,4.60
2022-12-04T19:48:33.710Z,4.59
2022-12-04T19:51:07.332Z,4.60
2022-12-04T19:53:40.616Z,4.61
2022-12-04T19:56:11.588Z,4.59
2022-12-04T19:58:39.275Z,4.58
2022-12-04T20:01:12.364Z,4.58
2022-12-04T20:03:40.170Z,4.55
2022-12-04T20:06:11.448Z,4.53
2022-12-04T20:08:39.948Z,4.52
2022-12-04T20:11:11.602Z,4.51
2022-12-04T20:13:39.928Z,4.48
2022-12-04T20:16:11.719Z,4.52
2022-12-04T20:18:41.200Z,4.54
2022-12-04T20:21:11.809Z,4.53
2022-12-04T20:23:39.790Z,4.53
2022-12-04T20:26:08.928Z,4.53
2022-12-04T20:28:36.683Z,4.53
2022-12-04T20:31:14.348Z,4.54
2022-12-04T20:33:42.555Z,4.56
2022-12-04T20:36:11.363Z,4.53
2022-12-04T20:38:40.135Z,4.50
2022-12-04T20:41:10.053Z,4.51
2022-12-04T20:43:38.138Z,4.49
2022-12-04T20:46:16.739Z,4.51
2022-12-04T20:48:48.214Z,4.49
2022-12-04T20:51:17.224Z,4.48
2022-12-04T20:53:45.271Z,4.50
2022-12-04T20:56:13.288Z,4.46
2022-12-04T20:58:41.327Z,4.48
2022-12-04T21:01:10.026Z,4.43
2022-12-04T21:03:39.397Z,4.46
2022-12-04T21:06:14.493Z,4.44
2022-12-04T21:08:54.286Z,4.46
2022-12-04T21:11:22.796Z,4.46
2022-12-04T21:14:07.896Z,4.42
2022-12-04T21:16:35.948Z,4.41
2022-12-04T21:19:06.055Z,4.42
2022-12-04T21:21:34.918Z,4.37
2022-12-04T21:24:02.760Z,4.34
2022-12-04T21:26:31.330Z,4.33
2022-12-04T21:28:59.454Z,4.32
2022-12-04T21:31:28.814Z,4.30
2022-12-04T21:33:56.978Z,4.28
2022-12-04T21:36:27.159Z,4.27
2022-12-04T21:38:55.484Z,4.28
2022-12-04T21:41:41.255Z,4.24
2022-12-04T21:44:10.711Z,4.26
2022-12-04T21:46:38.567Z,4.26
2022-12-04T21:49:06.446Z,4.22
2022-12-04T21:54:23.522Z,4.24
2022-12-04T21:56:51.181Z,4.24
2022-12-04T21:59:18.847Z,4.20
2022-12-04T22:01:46.623Z,4.19
2022-12-04T22:04:14.480Z,4.16
2022-12-04T22:06:43.523Z,4.16
2022-12-04T22:09:13.264Z,4.18
2022-12-04T22:11:42.331Z,4.20
2022-12-04T22:14:10.699Z,4.17
2022-12-04T22:16:42.864Z,4.19
2022-12-04T22:19:12.021Z,4.20
2022-12-04T22:21:39.764Z,4.21
2022-12-04T22:24:10.433Z,4.22
2022-12-04T22:26:38.751Z,4.20
2022-12-04T22:29:27.301Z,4.23
2022-12-04T22:31:54.441Z,4.25
2022-12-04T22:34:22.079Z,4.25
2022-12-04T22:36:50.179Z,4.26
2022-12-04T22:39:19.102Z,4.27
2022-12-04T22:41:46.683Z,4.30
2022-12-04T22:44:14.367Z,4.32
2022-12-04T22:46:42.137Z,4.31
2022-12-04T22:49:09.803Z,4.30
2022-12-04T22:51:37.459Z,4.31
2022-12-04T22:54:07.911Z,4.27
2022-12-04T22:56:36.842Z,4.29
2022-12-04T22:59:04.443Z,4.34
2022-12-04T23:01:33.839Z,4.32
2022-12-04T23:04:04.119Z,4.35
2022-12-04T23:06:33.762Z,4.37
2022-12-04T23:09:03.559Z,4.37
2022-12-04T23:11:31.561Z,4.35
2022-12-04T23:14:02.851Z,4.38
2022-12-04T23:16:32.639Z,4.35
2022-12-04T23:19:00.565Z,4.36
2022-12-04T23:21:29.443Z,4.37
2022-12-04T23:23:57.882Z,4.36
2022-12-04T23:26:28.983Z,4.39
2022-12-04T23:28:57.041Z,4.39
2022-12-04T23:31:26.503Z,4.38
2022-12-04T23:33:54.118Z,4.37
2022-12-04T23:36:22.078Z,4.38
2022-12-04T23:38:49.777Z,4.35
2022-12-04T23:41:19.708Z,4.38
2022-12-04T23:43:49.016Z,4.39
2022-12-04T23:46:18.885Z,4.40
2022-12-04T23:48:48.575Z,4.42
2022-12-04T23:51:19.166Z,4.38
2022-12-04T23:53:47.417Z,4.41
2022-12-04T23:56:16.922Z,4.42
2022-12-04T23:58:46.135Z,4.42
